createdAt,value
2023-11-01T00:01:31.765Z,66.70
2023-11-01T00:04:00.271Z,66.96
2023-11-01T00:06:28.570Z,67.24
2023-11-01T00:08:57.453Z,67.14
2023-11-01T00:11:25.851Z,67.06
2023-11-01T00:13:54.107Z,66.93
2023-11-01T00:16:22.207Z,66.52
2023-11-01T00:18:50.757Z,66.48
2023-11-01T00:21:18.776Z,66.40
2023-11-01T00:23:47.344Z,66.18
2023-11-01T00:26:15.796Z,66.04
2023-11-01T00:28:45.439Z,66.04
2023-11-01T00:31:13.494Z,66.02
2023-11-01T00:33:41.660Z,66.13
2023-11-01T00:36:10.153Z,66.22
2023-11-01T00:38:38.353Z,66.61
2023-11-01T00:41:06.699Z,67.06
2023-11-01T00:43:34.923Z,67.10
2023-11-01T00:46:03.094Z,67.38
2023-11-01T00:48:31.636Z,67.89
2023-11-01T00:50:59.739Z,68.02
2023-11-01T00:53:27.849Z,68.34
2023-11-01T00:55:55.952Z,69.08
2023-11-01T00:58:24.353Z,70.04
2023-11-01T01:00:52.406Z,71.08
2023-11-01T01:03:20.724Z,71.47
2023-11-01T01:05:49.020Z,71.36
2023-11-01T01:08:17.522Z,71.07
2023-11-01T01:10:45.624Z,70.88
2023-11-01T01:13:13.804Z,70.75
2023-11-01T01:15:42.099Z,70.70
2023-11-01T01:18:10.087Z,70.44
2023-11-01T01:20:38.078Z,70.39
2023-11-01T01:23:06.166Z,70.78
2023-11-01T01:25:34.545Z,71.14
2023-11-01T01:28:02.675Z,71.28
2023-11-01T01:30:30.796Z,71.41
2023-11-01T01:32:59.254Z,71.11
2023-11-01T01:35:27.520Z,70.98
2023-11-01T01:37:55.732Z,70.81
2023-11-01T01:40:23.693Z,71.10
2023-11-01T01:42:51.841Z,71.10
2023-11-01T01:45:20.133Z,71.15
2023-11-01T01:47:48.326Z,70.84
2023-11-01T01:50:16.487Z,70.43
2023-11-01T01:52:44.550Z,70.32
2023-11-01T01:55:12.639Z,69.87
2023-11-01T01:57:40.755Z,69.72
2023-11-01T02:00:09.279Z,69.85
2023-11-01T02:02:40.434Z,69.79
2023-11-01T02:05:09.829Z,69.88
2023-11-01T02:07:37.941Z,69.90
2023-11-01T02:10:07.016Z,70.06
2023-11-01T02:12:35.502Z,70.08
2023-11-01T02:15:04.218Z,70.03
2023-11-01T02:17:32.381Z,69.96
2023-11-01T02:20:01.769Z,70.27
2023-11-01T02:22:29.975Z,70.23
2023-11-01T02:24:58.243Z,70.14
2023-11-01T02:27:26.995Z,69.97
2023-11-01T02:29:55.017Z,69.91
2023-11-01T02:32:29.290Z,70.00
2023-11-01T02:34:58.119Z,70.33
2023-11-01T02:37:26.217Z,70.61
2023-11-01T02:39:54.387Z,70.87
2023-11-01T02:42:22.700Z,71.12
2023-11-01T02:44:50.913Z,71.05
2023-11-01T02:47:18.894Z,70.94
2023-11-01T02:49:46.956Z,71.03
2023-11-01T02:52:14.958Z,70.91
2023-11-01T02:54:43.120Z,70.70
2023-11-01T02:57:11.237Z,70.32
2023-11-01T02:59:39.374Z,70.27
2023-11-01T03:02:07.517Z,70.09
2023-11-01T03:04:35.651Z,70.24
2023-11-01T03:07:03.758Z,70.45
2023-11-01T03:09:31.908Z,70.48
2023-11-01T03:12:00.169Z,70.52
2023-11-01T03:14:28.234Z,70.40
2023-11-01T03:16:56.364Z,70.17
2023-11-01T03:19:24.418Z,69.84
2023-11-01T03:21:53.376Z,69.56
2023-11-01T03:24:22.090Z,69.61
2023-11-01T03:26:50.404Z,69.63
2023-11-01T03:29:18.459Z,69.68
2023-11-01T03:31:46.477Z,69.74
2023-11-01T03:34:14.998Z,69.88
2023-11-01T03:36:43.837Z,70.17
2023-11-01T03:39:12.025Z,70.20
2023-11-01T03:41:41.252Z,70.40
2023-11-01T03:44:09.995Z,70.47
2023-11-01T03:46:38.194Z,70.13
2023-11-01T03:49:06.267Z,70.13
2023-11-01T03:51:34.478Z,69.99
2023-11-01T03:54:02.750Z,70.03
2023-11-01T03:56:31.398Z,69.91
2023-11-01T03:58:59.967Z,70.44
2023-11-01T04:01:28.130Z,70.64
2023-11-01T04:03:56.281Z,70.49
2023-11-01T04:06:24.398Z,70.60
2023-11-01T04:08:52.520Z,70.63
2023-11-01T04:11:20.778Z,70.45
2023-11-01T04:13:49.357Z,70.11
2023-11-01T04:16:17.531Z,69.74
2023-11-01T04:18:45.708Z,69.60
2023-11-01T04:21:13.650Z,69.44
2023-11-01T04:23:41.639Z,69.67
2023-11-01T04:26:09.867Z,69.86
2023-11-01T04:28:37.972Z,69.82
2023-11-01T04:31:06.041Z,69.56
2023-11-01T04:33:34.201Z,69.18
2023-11-01T04:36:02.300Z,69.11
2023-11-01T04:38:30.487Z,68.96
2023-11-01T04:40:58.435Z,69.10
2023-11-01T04:43:26.430Z,68.79
2023-11-01T04:45:54.688Z,68.70
2023-11-01T04:48:23.174Z,68.97
2023-11-01T04:50:51.634Z,69.17
2023-11-01T04:53:20.256Z,69.32
2023-11-01T04:55:48.601Z,69.28
2023-11-01T04:58:16.689Z,69.28
2023-11-01T05:00:44.774Z,69.40
2023-11-01T05:03:12.973Z,69.38
2023-11-01T05:05:41.163Z,69.43
2023-11-01T05:08:09.515Z,69.63
2023-11-01T05:10:37.572Z,69.37
2023-11-01T05:13:07.224Z,69.12
2023-11-01T05:15:35.882Z,69.08
2023-11-01T05:18:05.606Z,68.17
2023-11-01T05:20:33.796Z,67.35
2023-11-01T05:23:02.106Z,66.01
2023-11-01T05:25:30.866Z,65.84
2023-11-01T05:28:00.072Z,65.62
2023-11-01T05:30:28.200Z,65.73
2023-11-01T05:32:56.508Z,65.35
2023-11-01T05:35:24.703Z,64.81
2023-11-01T05:37:53.334Z,63.62
2023-11-01T05:40:21.393Z,62.79
2023-11-01T05:42:49.824Z,62.65
2023-11-01T05:45:18.812Z,61.92
2023-11-01T05:47:54.280Z,61.40
2023-11-01T05:50:27.158Z,61.48
2023-11-01T05:52:56.881Z,61.48
2023-11-01T05:55:33.219Z,61.10
2023-11-01T05:58:12.601Z,61.15
2023-11-01T06:00:40.770Z,60.54
2023-11-01T06:03:09.328Z,60.47
2023-11-01T06:05:40.277Z,60.19
2023-11-01T06:08:10.452Z,60.51
2023-11-01T06:10:38.607Z,60.27
2023-11-01T06:13:09.555Z,60.41
2023-11-01T06:15:38.272Z,60.23
2023-11-01T06:18:06.490Z,60.30
2023-11-01T06:20:38.052Z,60.59
2023-11-01T06:23:06.219Z,60.87
2023-11-01T06:25:34.412Z,61.38
2023-11-01T06:28:02.551Z,61.25
2023-11-01T06:30:30.515Z,60.98
2023-11-01T06:32:58.760Z,60.79
2023-11-01T06:35:27.031Z,60.73
2023-11-01T06:37:55.364Z,60.50
2023-11-01T06:40:23.576Z,60.66
2023-11-01T06:42:51.576Z,60.59
2023-11-01T06:45:19.664Z,60.64
2023-11-01T06:47:48.260Z,60.61
2023-11-01T06:50:16.496Z,60.33
2023-11-01T06:52:46.707Z,60.02
2023-11-01T06:55:14.869Z,59.87
2023-11-01T06:57:42.990Z,60.12
2023-11-01T07:00:11.781Z,60.19
2023-11-01T07:02:39.839Z,60.13
2023-11-01T07:05:08.159Z,60.04
2023-11-01T07:07:36.279Z,60.02
2023-11-01T07:10:04.774Z,59.94
2023-11-01T07:12:32.823Z,60.21
2023-11-01T07:15:00.927Z,60.32
2023-11-01T07:17:29.543Z,60.75
2023-11-01T07:19:57.791Z,60.69
2023-11-01T07:22:26.497Z,60.41
2023-11-01T07:24:54.963Z,59.87
2023-11-01T07:27:23.058Z,59.50
2023-11-01T07:29:51.220Z,59.15
2023-11-01T07:32:19.757Z,59.17
2023-11-01T07:34:48.556Z,58.60
2023-11-01T07:37:16.625Z,58.81
2023-11-01T07:39:44.876Z,58.60
2023-11-01T07:42:12.957Z,58.54
2023-11-01T07:44:41.054Z,58.74
2023-11-01T07:47:09.156Z,58.75
2023-11-01T07:49:37.315Z,58.89
2023-11-01T07:52:06.103Z,58.53
2023-11-01T07:54:34.358Z,58.41
2023-11-01T07:57:02.470Z,58.64
2023-11-01T07:59:30.779Z,58.54
2023-11-01T08:02:02.016Z,58.57
2023-11-01T08:04:30.683Z,58.71
2023-11-01T08:06:59.517Z,58.72
2023-11-01T08:09:28.087Z,58.42
2023-11-01T08:11:56.340Z,57.61
2023-11-01T08:14:24.367Z,57.81
2023-11-01T08:16:52.431Z,58.03
2023-11-01T08:19:20.480Z,57.76
2023-11-01T08:21:48.508Z,57.64
2023-11-01T08:24:16.721Z,57.65
2023-11-01T08:26:44.977Z,57.65
2023-11-01T08:29:13.042Z,57.29
2023-11-01T08:31:41.657Z,57.32
2023-11-01T08:34:09.793Z,57.51
2023-11-01T08:36:37.934Z,57.69
2023-11-01T08:39:06.419Z,57.62
2023-11-01T08:41:34.500Z,57.89
2023-11-01T08:44:02.504Z,58.03
2023-11-01T08:46:30.825Z,57.93
2023-11-01T08:49:00.210Z,57.94
2023-11-01T08:51:28.269Z,58.31
2023-11-01T08:54:00.000Z,58.22
2023-11-01T08:56:28.362Z,58.02
2023-11-01T08:58:56.725Z,58.11
2023-11-01T09:01:25.971Z,58.07
2023-11-01T09:03:54.246Z,58.03
2023-11-01T09:06:22.335Z,58.23
2023-11-01T09:08:50.463Z,58.46
2023-11-01T09:11:18.605Z,57.76
2023-11-01T09:13:46.804Z,57.64
2023-11-01T09:16:15.001Z,57.48
2023-11-01T09:18:43.246Z,57.30
2023-11-01T09:21:11.279Z,57.44
2023-11-01T09:23:39.500Z,57.60
2023-11-01T09:26:10.612Z,57.25
2023-11-01T09:28:38.904Z,56.78
2023-11-01T09:31:07.117Z,56.65
2023-11-01T09:33:36.649Z,56.42
2023-11-01T09:36:05.615Z,56.48
2023-11-01T09:38:33.757Z,56.29
2023-11-01T09:41:02.664Z,56.21
2023-11-01T09:43:30.652Z,56.45
2023-11-01T09:45:58.787Z,56.14
2023-11-01T09:48:26.929Z,55.90
2023-11-01T09:50:55.271Z,55.90
2023-11-01T09:53:23.398Z,55.78
2023-11-01T09:55:51.950Z,55.68
2023-11-01T09:58:20.979Z,55.88
2023-11-01T10:00:49.645Z,55.78
2023-11-01T10:03:20.820Z,55.38
2023-11-01T10:05:49.097Z,55.13
2023-11-01T10:08:17.380Z,54.66
2023-11-01T10:10:45.460Z,54.34
2023-11-01T10:13:13.763Z,53.94
2023-11-01T10:15:41.852Z,53.70
2023-11-01T10:18:09.929Z,53.45
2023-11-01T10:20:38.158Z,53.66
2023-11-01T10:23:06.225Z,53.34
2023-11-01T10:25:34.765Z,53.29
2023-11-01T10:28:02.931Z,53.29
2023-11-01T10:30:31.109Z,52.94
2023-11-01T10:33:00.676Z,52.97
2023-11-01T10:35:28.980Z,53.08
2023-11-01T10:38:01.544Z,52.70
2023-11-01T10:40:31.084Z,52.57
2023-11-01T10:43:04.060Z,52.78
2023-11-01T10:45:33.328Z,51.97
2023-11-01T10:48:04.674Z,51.78
2023-11-01T10:50:35.779Z,51.55
2023-11-01T10:53:04.386Z,51.42
2023-11-01T10:55:32.720Z,51.53
2023-11-01T10:58:00.911Z,51.37
2023-11-01T11:00:36.449Z,51.33
2023-11-01T11:03:16.978Z,51.19
2023-11-01T11:05:45.353Z,51.32
2023-11-01T11:08:13.339Z,51.05
2023-11-01T11:10:43.391Z,51.34
2023-11-01T11:13:11.939Z,50.73
2023-11-01T11:15:49.457Z,51.00
2023-11-01T11:18:49.894Z,50.81
2023-11-01T11:21:45.853Z,50.99
2023-11-01T11:24:32.523Z,50.42
2023-11-01T11:27:00.590Z,50.18
2023-11-01T11:29:46.994Z,50.29
2023-11-01T11:32:18.351Z,49.48
2023-11-01T11:34:47.015Z,49.64
2023-11-01T11:37:18.054Z,49.34
2023-11-01T11:40:04.147Z,48.85
2023-11-01T11:42:49.474Z,48.78
2023-11-01T11:45:28.053Z,48.31
2023-11-01T11:47:56.823Z,48.69
2023-11-01T11:50:25.165Z,48.62
2023-11-01T11:52:53.179Z,48.33
2023-11-01T11:55:40.783Z,47.95
2023-11-01T11:58:09.010Z,47.79
2023-11-01T12:00:37.441Z,48.22
2023-11-01T12:03:05.782Z,47.87
2023-11-01T12:05:34.973Z,48.13
2023-11-01T12:08:02.984Z,46.68
2023-11-01T12:10:31.071Z,46.99
2023-11-01T12:12:59.344Z,47.36
2023-11-01T12:15:27.914Z,47.82
2023-11-01T12:18:11.499Z,48.09
2023-11-01T12:20:39.786Z,48.00
2023-11-01T12:23:08.275Z,47.98
2023-11-01T12:25:36.240Z,47.62
2023-11-01T12:28:05.500Z,47.36
2023-11-01T12:30:33.781Z,46.62
2023-11-01T12:33:01.808Z,46.29
2023-11-01T12:35:29.997Z,46.07
2023-11-01T12:37:58.206Z,46.19
2023-11-01T12:40:27.349Z,46.76
2023-11-01T12:43:09.057Z,46.85
2023-11-01T12:45:37.247Z,47.19
2023-11-01T12:48:06.481Z,47.43
2023-11-01T12:50:36.694Z,47.36
2023-11-01T12:53:05.044Z,47.33
2023-11-01T12:55:33.092Z,47.53
2023-11-01T12:58:02.743Z,47.55
2023-11-01T13:00:31.891Z,48.12
2023-11-01T13:03:02.713Z,48.35
2023-11-01T13:05:31.545Z,48.33
2023-11-01T13:08:02.236Z,48.64
2023-11-01T13:10:30.209Z,48.80
2023-11-01T13:12:58.218Z,49.13
2023-11-01T13:15:27.267Z,49.39
2023-11-01T13:17:55.419Z,49.55
2023-11-01T13:20:23.364Z,49.83
2023-11-01T13:22:53.392Z,50.23
2023-11-01T13:25:22.710Z,50.27
2023-11-01T13:27:51.477Z,50.43
2023-11-01T13:30:19.656Z,50.53
2023-11-01T13:32:47.841Z,51.62
2023-11-01T13:35:16.155Z,52.01
2023-11-01T13:37:44.155Z,51.59
2023-11-01T13:40:12.264Z,51.39
2023-11-01T13:42:40.203Z,51.76
2023-11-01T13:45:09.417Z,52.44
2023-11-01T13:47:37.818Z,52.33
2023-11-01T13:50:06.418Z,52.11
2023-11-01T13:52:36.901Z,52.19
2023-11-01T13:55:05.493Z,52.29
2023-11-01T13:57:33.563Z,52.65
2023-11-01T14:00:01.760Z,52.75
2023-11-01T14:02:39.425Z,52.68
2023-11-01T14:05:07.740Z,52.67
2023-11-01T14:07:35.963Z,52.82
2023-11-01T14:10:05.578Z,52.95
2023-11-01T14:12:33.665Z,53.28
2023-11-01T14:15:01.738Z,53.57
2023-11-01T14:17:30.238Z,53.21
2023-11-01T14:19:58.221Z,53.25
2023-11-01T14:22:26.275Z,53.32
2023-11-01T14:24:54.597Z,53.40
2023-11-01T14:27:23.517Z,53.43
2023-11-01T14:29:52.144Z,53.60
2023-11-01T14:32:20.301Z,53.73
2023-11-01T14:34:48.338Z,53.85
2023-11-01T14:37:16.382Z,53.86
2023-11-01T14:39:44.705Z,53.96
2023-11-01T14:42:12.892Z,54.15
2023-11-01T14:44:41.128Z,54.12
2023-11-01T14:47:09.174Z,54.22
2023-11-01T14:49:37.151Z,54.43
2023-11-01T14:52:05.299Z,54.35
2023-11-01T14:54:33.331Z,54.38
2023-11-01T14:57:01.642Z,54.29
2023-11-01T14:59:29.835Z,54.19
2023-11-01T15:01:57.916Z,54.04
2023-11-01T15:04:26.261Z,54.15
2023-11-01T15:06:54.385Z,54.51
2023-11-01T15:09:22.394Z,54.90
2023-11-01T15:11:50.354Z,54.98
2023-11-01T15:14:18.647Z,55.10
2023-11-01T15:16:47.076Z,55.31
2023-11-01T15:19:15.102Z,56.20
2023-11-01T15:21:44.372Z,56.37
2023-11-01T15:24:15.083Z,56.25
2023-11-01T15:26:43.413Z,56.68
2023-11-01T15:29:13.071Z,56.82
2023-11-01T15:31:41.191Z,56.95
2023-11-01T15:34:09.706Z,57.29
2023-11-01T15:36:38.097Z,58.18
2023-11-01T15:39:06.347Z,58.06
2023-11-01T15:41:34.650Z,58.58
2023-11-01T15:44:02.787Z,58.50
2023-11-01T15:46:30.868Z,58.59
2023-11-01T15:48:58.858Z,58.63
2023-11-01T15:51:26.879Z,58.84
2023-11-01T15:53:55.013Z,58.76
2023-11-01T15:56:23.150Z,58.79
2023-11-01T15:58:51.301Z,59.21
2023-11-01T16:01:20.982Z,59.60
2023-11-01T16:03:49.198Z,59.84
2023-11-01T16:06:17.704Z,59.97
2023-11-01T16:08:46.267Z,59.88
2023-11-01T16:11:14.500Z,59.75
2023-11-01T16:13:42.729Z,59.59
2023-11-01T16:16:11.480Z,59.42
2023-11-01T16:18:40.133Z,59.49
2023-11-01T16:21:11.125Z,59.45
2023-11-01T16:23:39.119Z,59.54
2023-11-01T16:26:07.343Z,59.35
2023-11-01T16:28:35.445Z,59.25
2023-11-01T16:31:03.749Z,59.56
2023-11-01T16:33:32.133Z,59.66
2023-11-01T16:36:00.605Z,59.70
2023-11-01T16:38:30.676Z,59.91
2023-11-01T16:41:01.294Z,60.01
2023-11-01T16:43:29.969Z,60.02
2023-11-01T16:45:58.438Z,60.10
2023-11-01T16:48:26.697Z,60.47
2023-11-01T16:50:54.756Z,60.31
2023-11-01T16:53:24.746Z,60.58
2023-11-01T16:56:00.081Z,60.72
2023-11-01T16:58:29.210Z,60.76
2023-11-01T17:01:00.006Z,60.80
2023-11-01T17:03:30.694Z,61.30
2023-11-01T17:06:03.981Z,61.88
2023-11-01T17:08:32.462Z,62.17
2023-11-01T17:11:03.420Z,62.23
2023-11-01T17:13:31.785Z,62.25
2023-11-01T17:15:59.916Z,62.30
2023-11-01T17:18:28.075Z,62.30
2023-11-01T17:20:56.370Z,62.35
2023-11-01T17:23:26.542Z,62.45
2023-11-01T17:26:00.414Z,62.41
2023-11-01T17:28:37.902Z,62.43
2023-11-01T17:31:14.220Z,62.57
2023-11-01T17:33:45.509Z,62.54
2023-11-01T17:36:20.471Z,62.72
2023-11-01T17:38:48.686Z,62.87
2023-11-01T17:41:35.651Z,62.92
2023-11-01T17:44:03.787Z,62.85
2023-11-01T17:46:31.928Z,63.27
2023-11-01T17:49:02.739Z,63.10
2023-11-01T17:51:33.917Z,63.73
2023-11-01T17:54:03.684Z,63.86
2023-11-01T17:56:34.461Z,64.53
2023-11-01T17:59:02.770Z,64.84
2023-11-01T18:01:32.233Z,64.97
2023-11-01T18:04:00.343Z,64.86
2023-11-01T18:06:28.471Z,64.87
2023-11-01T18:08:58.601Z,64.78
2023-11-01T18:11:26.871Z,64.53
2023-11-01T18:13:56.157Z,64.79
2023-11-01T18:16:27.988Z,64.72
2023-11-01T18:18:57.653Z,64.89
2023-11-01T18:21:38.738Z,65.41
2023-11-01T18:24:14.466Z,65.36
2023-11-01T18:26:47.544Z,65.78
2023-11-01T18:29:17.956Z,65.78
2023-11-01T18:31:46.199Z,65.68
2023-11-01T18:34:14.685Z,65.68
2023-11-01T18:36:47.715Z,65.65
2023-11-01T18:39:22.918Z,65.87
2023-11-01T18:41:51.336Z,65.93
2023-11-01T18:44:35.696Z,66.16
2023-11-01T18:47:06.802Z,66.34
2023-11-01T18:50:05.857Z,66.23
2023-11-01T18:52:35.830Z,66.17
2023-11-01T18:55:11.083Z,66.00
2023-11-01T18:57:46.605Z,65.87
2023-11-01T19:00:25.505Z,66.13
2023-11-01T19:03:08.565Z,66.20
2023-11-01T19:05:42.582Z,66.20
2023-11-01T19:08:12.468Z,66.33
2023-11-01T19:10:43.884Z,66.42
2023-11-01T19:13:12.474Z,66.42
2023-11-01T19:15:40.804Z,66.63
2023-11-01T19:18:17.684Z,66.52
2023-11-01T19:20:49.809Z,66.89
2023-11-01T19:23:20.820Z,67.06
2023-11-01T19:25:51.613Z,67.15
2023-11-01T19:28:30.821Z,67.35
2023-11-01T19:31:05.150Z,67.66
2023-11-01T19:33:35.032Z,67.70
2023-11-01T19:36:10.643Z,67.75
2023-11-01T19:38:46.334Z,67.62
2023-11-01T19:41:19.995Z,67.50
2023-11-01T19:43:51.028Z,67.46
2023-11-01T19:46:19.194Z,67.50
2023-11-01T19:48:48.003Z,67.41
2023-11-01T19:51:17.472Z,67.28
2023-11-01T19:53:52.556Z,67.12
2023-11-01T19:56:21.689Z,67.17
2023-11-01T19:58:53.203Z,67.56
2023-11-01T20:01:28.460Z,67.10
2023-11-01T20:03:56.778Z,67.47
2023-11-01T20:06:25.543Z,66.99
2023-11-01T20:08:53.673Z,67.08
2023-11-01T20:11:22.035Z,67.31
2023-11-01T20:13:53.468Z,67.30
2023-11-01T20:16:30.626Z,67.58
2023-11-01T20:19:07.438Z,67.57
2023-11-01T20:21:39.508Z,67.62
2023-11-01T20:24:09.297Z,67.41
2023-11-01T20:26:46.759Z,67.37
2023-11-01T20:29:14.850Z,67.48
2023-11-01T20:31:43.244Z,67.18
2023-11-01T20:34:11.929Z,67.08
2023-11-01T20:36:45.805Z,67.17
2023-11-01T20:39:13.935Z,67.32
2023-11-01T20:41:42.265Z,67.29
2023-11-01T20:44:10.289Z,67.36
2023-11-01T20:46:38.387Z,67.35
2023-11-01T20:49:06.490Z,67.61
2023-11-01T20:51:34.594Z,67.87
2023-11-01T20:54:03.634Z,68.06
2023-11-01T20:56:36.325Z,68.17
2023-11-01T20:59:04.648Z,68.27
2023-11-01T21:01:32.827Z,68.18
2023-11-01T21:04:00.969Z,67.85
2023-11-01T21:06:29.092Z,67.85
2023-11-01T21:08:59.464Z,67.54
2023-11-01T21:11:32.374Z,67.40
2023-11-01T21:14:00.488Z,67.41
2023-11-01T21:16:28.653Z,67.32
2023-11-01T21:18:56.695Z,67.44
2023-11-01T21:21:25.033Z,67.58
2023-11-01T21:23:53.339Z,67.58
2023-11-01T21:26:21.590Z,67.55
2023-11-01T21:28:49.764Z,67.68
2023-11-01T21:31:17.881Z,67.86
2023-11-01T21:33:46.625Z,67.86
2023-11-01T21:36:14.831Z,68.00
2023-11-01T21:38:43.217Z,68.16
2023-11-01T21:41:11.333Z,68.24
2023-11-01T21:43:49.941Z,68.37
2023-11-01T21:46:22.210Z,68.57
2023-11-01T21:48:51.277Z,68.32
2023-11-01T21:51:19.791Z,68.38
2023-11-01T21:53:47.925Z,68.18
2023-11-01T21:56:20.155Z,68.14
2023-11-01T21:58:49.235Z,68.65
2023-11-01T22:01:20.741Z,68.52
2023-11-01T22:03:50.342Z,68.61
2023-11-01T22:06:28.464Z,68.50
2023-11-01T22:09:05.911Z,68.59
2023-11-01T22:11:34.942Z,68.51
2023-11-01T22:14:16.705Z,68.33
2023-11-01T22:16:44.788Z,68.58
2023-11-01T22:19:33.274Z,68.94
2023-11-01T22:22:11.019Z,68.96
2023-11-01T22:24:40.835Z,69.18
2023-11-01T22:27:10.139Z,69.51
2023-11-01T22:29:45.551Z,69.34
2023-11-01T22:32:19.608Z,69.34
2023-11-01T22:34:51.239Z,69.23
2023-11-01T22:37:24.255Z,68.95
2023-11-01T22:39:52.837Z,68.88
2023-11-01T22:42:22.376Z,69.05
2023-11-01T22:44:50.749Z,68.82
2023-11-01T22:47:19.185Z,68.73
2023-11-01T22:49:47.443Z,68.58
2023-11-01T22:52:15.405Z,68.71
2023-11-01T22:54:43.477Z,68.70
2023-11-01T22:57:11.830Z,68.85
2023-11-01T22:59:39.981Z,69.05
2023-11-01T23:02:13.392Z,69.12
2023-11-01T23:04:42.904Z,70.04
2023-11-01T23:07:11.787Z,70.16
2023-11-01T23:09:40.162Z,70.21
2023-11-01T23:12:10.251Z,70.10
2023-11-01T23:14:38.458Z,70.10
2023-11-01T23:17:08.506Z,69.87
2023-11-01T23:19:36.875Z,69.72
2023-11-01T23:22:05.435Z,69.47
2023-11-01T23:24:33.445Z,69.51
2023-11-01T23:27:05.262Z,69.29
2023-11-01T23:29:40.059Z,69.41
2023-11-01T23:32:12.629Z,69.64
2023-11-01T23:34:51.787Z,69.58
2023-11-01T23:37:23.583Z,70.23
2023-11-01T23:39:51.718Z,70.17
2023-11-01T23:42:20.131Z,70.39
2023-11-01T23:44:53.889Z,70.60
2023-11-01T23:47:24.265Z,70.50
2023-11-01T23:49:58.412Z,70.49
2023-11-01T23:52:32.388Z,70.64
2023-11-01T23:55:00.642Z,70.33
2023-11-01T23:57:32.016Z,70.04
